KDEH

Decorah Municipal Airport

Decorah, Iowa, USA
METAR KDEH 180255Z AUTO 00000KT 5SM BR OVC006 M00/M01 A2994 RMK AO2
Observed Flight Rules
Dec-18 @ 02:55 UTC (25 minutes ago) Instrument Flight Rules
Wind Visibility Clouds Conditions
Calm 5 miles
  • Overcast at 600' AGL
  • Mist
Temperatures Readings
Current 0°C / 32°F
Dewpoint -1°C / 30°F
Humidity 93%
Altimeter 29.94" Hg
Pressure 1014 hPa
Elevation 353
METAR KDEH 180255Z AUTO 00000KT 5SM BR OVC006 M00/M01 A2994 RMK AO2
Observed Flight Rules
Dec-18 @ 02:55 UTC
(25 minutes ago)
IFR
Wind Visibility
Calm 5 miles
Clouds
  • Overcast at 600' AGL
Conditions
  • Mist
Temperature Dewpoint
0°C / 32°F -1°C / 30°F
Humidity Altimeter Pressure
93% 29.94" Hg 1014 hPa